sensor_id;sensor_type;location;lat;lon;timestamp;P1;durP1;ratioP1;P2;durP2;ratioP2
14903;SDS011;7543;53.148;8.234;2023-01-25T00:00:39;14.20;;;7.80;;
14903;SDS011;7543;53.148;8.234;2023-01-25T00:03:07;14.57;;;7.83;;
14903;SDS011;7543;53.148;8.234;2023-01-25T00:05:35;14.77;;;7.57;;
14903;SDS011;7543;53.148;8.234;2023-01-25T00:08:04;13.83;;;8.13;;
14903;SDS011;7543;53.148;8.234;2023-01-25T00:10:32;18.83;;;9.43;;
14903;SDS011;7543;53.148;8.234;2023-01-25T00:13:02;15.43;;;8.37;;
14903;SDS011;7543;53.148;8.234;2023-01-25T00:15:30;14.63;;;8.37;;
14903;SDS011;7543;53.148;8.234;2023-01-25T00:17:58;13.17;;;8.17;;
14903;SDS011;7543;53.148;8.234;2023-01-25T00:20:26;16.63;;;8.83;;
14903;SDS011;7543;53.148;8.234;2023-01-25T00:22:54;17.30;;;9.23;;
14903;SDS011;7543;53.148;8.234;2023-01-25T00:25:22;15.13;;;8.60;;
14903;SDS011;7543;53.148;8.234;2023-01-25T00:27:50;16.23;;;9.10;;
14903;SDS011;7543;53.148;8.234;2023-01-25T00:30:20;16.20;;;8.87;;
14903;SDS011;7543;53.148;8.234;2023-01-25T00:32:52;20.47;;;9.27;;
14903;SDS011;7543;53.148;8.234;2023-01-25T00:35:21;16.77;;;9.20;;
14903;SDS011;7543;53.148;8.234;2023-01-25T00:37:51;16.77;;;9.17;;
14903;SDS011;7543;53.148;8.234;2023-01-25T00:40:19;16.47;;;9.67;;
14903;SDS011;7543;53.148;8.234;2023-01-25T00:42:48;17.20;;;10.00;;
14903;SDS011;7543;53.148;8.234;2023-01-25T00:45:16;18.23;;;9.47;;
14903;SDS011;7543;53.148;8.234;2023-01-25T00:47:46;16.87;;;10.13;;
14903;SDS011;7543;53.148;8.234;2023-01-25T00:50:14;18.13;;;9.73;;
14903;SDS011;7543;53.148;8.234;2023-01-25T00:52:43;17.27;;;9.17;;
14903;SDS011;7543;53.148;8.234;2023-01-25T00:55:11;17.53;;;9.87;;
14903;SDS011;7543;53.148;8.234;2023-01-25T00:57:39;19.43;;;9.43;;
14903;SDS011;7543;53.148;8.234;2023-01-25T01:00:07;20.70;;;10.13;;
14903;SDS011;7543;53.148;8.234;2023-01-25T01:02:36;19.17;;;10.17;;
14903;SDS011;7543;53.148;8.234;2023-01-25T01:05:06;20.97;;;10.00;;
14903;SDS011;7543;53.148;8.234;2023-01-25T01:07:35;19.27;;;10.13;;
14903;SDS011;7543;53.148;8.234;2023-01-25T01:10:04;19.57;;;10.50;;
14903;SDS011;7543;53.148;8.234;2023-01-25T01:12:33;19.63;;;10.17;;
14903;SDS011;7543;53.148;8.234;2023-01-25T01:15:01;19.67;;;10.70;;
14903;SDS011;7543;53.148;8.234;2023-01-25T01:17:31;21.53;;;11.13;;
14903;SDS011;7543;53.148;8.234;2023-01-25T01:19:59;20.90;;;11.07;;
14903;SDS011;7543;53.148;8.234;2023-01-25T01:22:28;20.03;;;10.43;;
14903;SDS011;7543;53.148;8.234;2023-01-25T01:24:56;22.00;;;11.40;;
14903;SDS011;7543;53.148;8.234;2023-01-25T01:27:25;19.90;;;11.80;;
14903;SDS011;7543;53.148;8.234;2023-01-25T01:29:53;22.00;;;10.83;;
14903;SDS011;7543;53.148;8.234;2023-01-25T01:32:21;22.10;;;10.87;;
14903;SDS011;7543;53.148;8.234;2023-01-25T01:34:51;23.07;;;11.73;;
14903;SDS011;7543;53.148;8.234;2023-01-25T01:37:19;25.23;;;11.87;;
14903;SDS011;7543;53.148;8.234;2023-01-25T01:39:50;20.03;;;10.87;;
14903;SDS011;7543;53.148;8.234;2023-01-25T01:42:18;21.97;;;11.53;;
14903;SDS011;7543;53.148;8.234;2023-01-25T01:44:47;20.00;;;10.80;;
14903;SDS011;7543;53.148;8.234;2023-01-25T01:47:19;20.00;;;10.63;;
14903;SDS011;7543;53.148;8.234;2023-01-25T01:49:53;22.43;;;11.30;;
14903;SDS011;7543;53.148;8.234;2023-01-25T01:52:26;21.37;;;12.00;;
14903;SDS011;7543;53.148;8.234;2023-01-25T01:55:00;20.77;;;10.77;;
14903;SDS011;7543;53.148;8.234;2023-01-25T01:57:31;20.33;;;11.03;;
14903;SDS011;7543;53.148;8.234;2023-01-25T02:00:03;24.30;;;11.00;;
14903;SDS011;7543;53.148;8.234;2023-01-25T02:02:44;20.10;;;10.83;;
14903;SDS011;7543;53.148;8.234;2023-01-25T02:05:15;21.23;;;11.47;;
14903;SDS011;7543;53.148;8.234;2023-01-25T02:07:45;20.60;;;10.63;;
14903;SDS011;7543;53.148;8.234;2023-01-25T02:10:18;21.87;;;11.77;;
14903;SDS011;7543;53.148;8.234;2023-01-25T02:12:48;21.33;;;11.23;;
14903;SDS011;7543;53.148;8.234;2023-01-25T02:15:18;21.00;;;11.53;;
14903;SDS011;7543;53.148;8.234;2023-01-25T02:17:46;24.67;;;11.67;;
14903;SDS011;7543;53.148;8.234;2023-01-25T02:20:16;21.50;;;11.00;;
14903;SDS011;7543;53.148;8.234;2023-01-25T02:22:49;24.27;;;11.90;;
14903;SDS011;7543;53.148;8.234;2023-01-25T02:25:22;18.80;;;10.53;;
14903;SDS011;7543;53.148;8.234;2023-01-25T02:27:51;20.53;;;10.63;;
14903;SDS011;7543;53.148;8.234;2023-01-25T02:30:21;22.73;;;10.67;;
14903;SDS011;7543;53.148;8.234;2023-01-25T02:32:51;22.13;;;11.20;;
14903;SDS011;7543;53.148;8.234;2023-01-25T02:35:20;23.53;;;10.83;;
14903;SDS011;7543;53.148;8.234;2023-01-25T02:37:49;21.90;;;10.47;;
14903;SDS011;7543;53.148;8.234;2023-01-25T02:40:18;20.40;;;11.17;;
14903;SDS011;7543;53.148;8.234;2023-01-25T02:42:49;21.20;;;11.20;;
14903;SDS011;7543;53.148;8.234;2023-01-25T02:45:18;18.00;;;10.77;;
14903;SDS011;7543;53.148;8.234;2023-01-25T02:47:52;18.80;;;10.77;;
14903;SDS011;7543;53.148;8.234;2023-01-25T02:50:21;23.83;;;11.57;;
14903;SDS011;7543;53.148;8.234;2023-01-25T02:52:49;20.87;;;10.70;;
14903;SDS011;7543;53.148;8.234;2023-01-25T02:55:17;19.77;;;10.73;;
14903;SDS011;7543;53.148;8.234;2023-01-25T02:57:46;20.40;;;11.37;;
14903;SDS011;7543;53.148;8.234;2023-01-25T03:00:17;17.83;;;9.60;;
14903;SDS011;7543;53.148;8.234;2023-01-25T03:02:46;22.37;;;11.50;;
14903;SDS011;7543;53.148;8.234;2023-01-25T03:05:14;21.67;;;11.43;;
14903;SDS011;7543;53.148;8.234;2023-01-25T03:07:43;21.43;;;11.13;;
14903;SDS011;7543;53.148;8.234;2023-01-25T03:10:11;18.57;;;10.80;;
14903;SDS011;7543;53.148;8.234;2023-01-25T03:12:40;21.27;;;11.47;;
14903;SDS011;7543;53.148;8.234;2023-01-25T03:15:08;20.43;;;10.90;;
14903;SDS011;7543;53.148;8.234;2023-01-25T03:17:38;21.27;;;11.53;;
14903;SDS011;7543;53.148;8.234;2023-01-25T03:20:07;24.17;;;12.00;;
14903;SDS011;7543;53.148;8.234;2023-01-25T03:22:40;22.97;;;11.77;;
14903;SDS011;7543;53.148;8.234;2023-01-25T03:25:09;24.03;;;11.77;;
14903;SDS011;7543;53.148;8.234;2023-01-25T03:27:40;19.03;;;11.03;;
14903;SDS011;7543;53.148;8.234;2023-01-25T03:30:11;26.00;;;13.17;;
14903;SDS011;7543;53.148;8.234;2023-01-25T03:32:41;24.33;;;13.13;;
14903;SDS011;7543;53.148;8.234;2023-01-25T03:35:14;26.10;;;13.00;;
14903;SDS011;7543;53.148;8.234;2023-01-25T03:37:42;24.70;;;13.70;;
14903;SDS011;7543;53.148;8.234;2023-01-25T03:40:11;30.97;;;15.73;;
14903;SDS011;7543;53.148;8.234;2023-01-25T03:42:43;25.60;;;13.50;;
14903;SDS011;7543;53.148;8.234;2023-01-25T03:45:12;30.70;;;13.97;;
14903;SDS011;7543;53.148;8.234;2023-01-25T03:47:42;25.33;;;13.73;;
14903;SDS011;7543;53.148;8.234;2023-01-25T03:50:10;29.60;;;14.53;;
14903;SDS011;7543;53.148;8.234;2023-01-25T03:52:40;27.53;;;13.57;;
14903;SDS011;7543;53.148;8.234;2023-01-25T03:55:11;27.67;;;14.30;;
14903;SDS011;7543;53.148;8.234;2023-01-25T03:57:42;26.80;;;13.60;;
14903;SDS011;7543;53.148;8.234;2023-01-25T04:00:11;32.93;;;14.93;;
14903;SDS011;7543;53.148;8.234;2023-01-25T04:06:36;25.80;;;12.97;;
14903;SDS011;7543;53.148;8.234;2023-01-25T04:09:05;26.70;;;13.60;;
14903;SDS011;7543;53.148;8.234;2023-01-25T04:11:39;25.83;;;12.63;;
14903;SDS011;7543;53.148;8.234;2023-01-25T04:14:08;26.67;;;13.00;;
14903;SDS011;7543;53.148;8.234;2023-01-25T04:16:56;25.23;;;12.87;;
14903;SDS011;7543;53.148;8.234;2023-01-25T04:19:27;28.70;;;13.63;;
14903;SDS011;7543;53.148;8.234;2023-01-25T04:22:00;26.23;;;13.43;;
14903;SDS011;7543;53.148;8.234;2023-01-25T04:24:33;27.13;;;13.57;;
14903;SDS011;7543;53.148;8.234;2023-01-25T04:27:02;28.37;;;13.60;;
14903;SDS011;7543;53.148;8.234;2023-01-25T04:29:35;25.50;;;12.40;;
14903;SDS011;7543;53.148;8.234;2023-01-25T04:32:04;26.67;;;12.60;;
14903;SDS011;7543;53.148;8.234;2023-01-25T04:34:33;25.47;;;12.33;;
14903;SDS011;7543;53.148;8.234;2023-01-25T04:37:02;24.53;;;12.07;;
14903;SDS011;7543;53.148;8.234;2023-01-25T04:39:36;32.03;;;12.73;;
14903;SDS011;7543;53.148;8.234;2023-01-25T04:42:04;25.33;;;12.10;;
14903;SDS011;7543;53.148;8.234;2023-01-25T04:44:33;22.60;;;11.13;;
14903;SDS011;7543;53.148;8.234;2023-01-25T04:47:01;25.07;;;13.10;;
14903;SDS011;7543;53.148;8.234;2023-01-25T04:49:29;27.80;;;13.63;;
14903;SDS011;7543;53.148;8.234;2023-01-25T04:51:58;24.30;;;12.67;;
14903;SDS011;7543;53.148;8.234;2023-01-25T04:54:27;24.03;;;11.87;;
14903;SDS011;7543;53.148;8.234;2023-01-25T04:56:55;22.87;;;11.57;;
14903;SDS011;7543;53.148;8.234;2023-01-25T04:59:23;23.30;;;11.87;;
14903;SDS011;7543;53.148;8.234;2023-01-25T05:01:52;23.03;;;11.20;;
14903;SDS011;7543;53.148;8.234;2023-01-25T05:04:20;21.80;;;11.13;;
14903;SDS011;7543;53.148;8.234;2023-01-25T05:06:50;26.93;;;12.07;;
14903;SDS011;7543;53.148;8.234;2023-01-25T05:09:18;23.30;;;11.47;;
14903;SDS011;7543;53.148;8.234;2023-01-25T05:11:48;23.50;;;11.60;;
14903;SDS011;7543;53.148;8.234;2023-01-25T05:14:25;23.53;;;11.50;;
14903;SDS011;7543;53.148;8.234;2023-01-25T05:16:54;23.40;;;11.87;;
14903;SDS011;7543;53.148;8.234;2023-01-25T05:19:22;22.90;;;13.30;;
14903;SDS011;7543;53.148;8.234;2023-01-25T05:21:59;25.20;;;11.67;;
14903;SDS011;7543;53.148;8.234;2023-01-25T05:24:37;28.93;;;13.37;;
14903;SDS011;7543;53.148;8.234;2023-01-25T05:27:11;23.77;;;11.90;;
14903;SDS011;7543;53.148;8.234;2023-01-25T05:30:06;25.90;;;12.33;;
14903;SDS011;7543;53.148;8.234;2023-01-25T05:32:46;24.50;;;12.47;;
14903;SDS011;7543;53.148;8.234;2023-01-25T05:35:16;21.83;;;11.90;;
14903;SDS011;7543;53.148;8.234;2023-01-25T05:37:45;23.90;;;11.13;;
14903;SDS011;7543;53.148;8.234;2023-01-25T05:40:20;24.33;;;11.90;;
14903;SDS011;7543;53.148;8.234;2023-01-25T05:42:53;26.20;;;12.90;;
14903;SDS011;7543;53.148;8.234;2023-01-25T05:45:23;24.50;;;11.20;;
14903;SDS011;7543;53.148;8.234;2023-01-25T05:47:55;26.53;;;12.37;;
14903;SDS011;7543;53.148;8.234;2023-01-25T05:50:24;22.23;;;11.23;;
14903;SDS011;7543;53.148;8.234;2023-01-25T05:52:59;21.43;;;11.30;;
14903;SDS011;7543;53.148;8.234;2023-01-25T05:55:29;24.50;;;11.43;;
14903;SDS011;7543;53.148;8.234;2023-01-25T05:58:03;22.77;;;11.47;;
14903;SDS011;7543;53.148;8.234;2023-01-25T06:00:32;24.73;;;12.43;;
14903;SDS011;7543;53.148;8.234;2023-01-25T06:03:00;26.77;;;13.23;;
14903;SDS011;7543;53.148;8.234;2023-01-25T06:05:31;23.93;;;12.20;;
14903;SDS011;7543;53.148;8.234;2023-01-25T06:08:00;23.90;;;11.63;;
14903;SDS011;7543;53.148;8.234;2023-01-25T06:10:43;24.13;;;11.77;;
14903;SDS011;7543;53.148;8.234;2023-01-25T06:13:13;28.67;;;13.73;;
14903;SDS011;7543;53.148;8.234;2023-01-25T06:15:42;25.50;;;12.70;;
14903;SDS011;7543;53.148;8.234;2023-01-25T06:18:38;31.63;;;13.90;;
14903;SDS011;7543;53.148;8.234;2023-01-25T06:21:42;28.37;;;12.73;;
14903;SDS011;7543;53.148;8.234;2023-01-25T06:24:10;28.60;;;12.60;;
14903;SDS011;7543;53.148;8.234;2023-01-25T06:26:39;27.70;;;14.53;;
14903;SDS011;7543;53.148;8.234;2023-01-25T06:29:08;29.17;;;13.40;;
14903;SDS011;7543;53.148;8.234;2023-01-25T06:31:36;30.87;;;13.40;;
14903;SDS011;7543;53.148;8.234;2023-01-25T06:34:05;33.43;;;14.73;;
14903;SDS011;7543;53.148;8.234;2023-01-25T06:36:34;31.33;;;16.10;;
14903;SDS011;7543;53.148;8.234;2023-01-25T06:39:03;35.33;;;14.40;;
14903;SDS011;7543;53.148;8.234;2023-01-25T06:41:31;31.63;;;13.97;;
14903;SDS011;7543;53.148;8.234;2023-01-25T06:43:59;33.43;;;15.87;;
14903;SDS011;7543;53.148;8.234;2023-01-25T06:46:29;34.40;;;13.93;;
14903;SDS011;7543;53.148;8.234;2023-01-25T06:48:58;29.13;;;14.47;;
14903;SDS011;7543;53.148;8.234;2023-01-25T06:51:26;30.27;;;13.97;;
14903;SDS011;7543;53.148;8.234;2023-01-25T06:53:55;33.33;;;13.90;;
14903;SDS011;7543;53.148;8.234;2023-01-25T06:56:23;31.17;;;13.83;;
14903;SDS011;7543;53.148;8.234;2023-01-25T06:58:52;37.10;;;13.90;;
14903;SDS011;7543;53.148;8.234;2023-01-25T07:01:21;32.33;;;14.50;;
14903;SDS011;7543;53.148;8.234;2023-01-25T07:03:55;31.53;;;14.43;;
14903;SDS011;7543;53.148;8.234;2023-01-25T07:06:24;32.90;;;13.70;;
14903;SDS011;7543;53.148;8.234;2023-01-25T07:08:53;25.83;;;12.17;;
14903;SDS011;7543;53.148;8.234;2023-01-25T07:11:21;29.97;;;13.53;;
14903;SDS011;7543;53.148;8.234;2023-01-25T07:13:50;28.30;;;12.80;;
14903;SDS011;7543;53.148;8.234;2023-01-25T07:16:18;27.77;;;12.47;;
14903;SDS011;7543;53.148;8.234;2023-01-25T07:18:47;26.40;;;12.43;;
14903;SDS011;7543;53.148;8.234;2023-01-25T07:21:17;30.30;;;12.60;;
14903;SDS011;7543;53.148;8.234;2023-01-25T07:23:46;27.43;;;11.90;;
14903;SDS011;7543;53.148;8.234;2023-01-25T07:26:16;21.80;;;11.53;;
14903;SDS011;7543;53.148;8.234;2023-01-25T07:28:45;28.97;;;13.00;;
14903;SDS011;7543;53.148;8.234;2023-01-25T07:31:14;28.53;;;12.53;;
14903;SDS011;7543;53.148;8.234;2023-01-25T07:33:46;23.93;;;11.20;;
14903;SDS011;7543;53.148;8.234;2023-01-25T07:36:14;26.80;;;11.27;;
14903;SDS011;7543;53.148;8.234;2023-01-25T07:38:44;22.97;;;10.10;;
14903;SDS011;7543;53.148;8.234;2023-01-25T07:41:12;24.27;;;10.97;;
14903;SDS011;7543;53.148;8.234;2023-01-25T07:43:42;23.40;;;12.17;;
14903;SDS011;7543;53.148;8.234;2023-01-25T07:46:11;25.17;;;11.00;;
14903;SDS011;7543;53.148;8.234;2023-01-25T07:48:44;22.90;;;11.63;;
14903;SDS011;7543;53.148;8.234;2023-01-25T07:51:14;21.27;;;10.70;;
14903;SDS011;7543;53.148;8.234;2023-01-25T07:53:51;25.73;;;10.80;;
14903;SDS011;7543;53.148;8.234;2023-01-25T07:56:21;24.53;;;11.33;;
14903;SDS011;7543;53.148;8.234;2023-01-25T07:58:51;23.27;;;10.17;;
14903;SDS011;7543;53.148;8.234;2023-01-25T08:01:20;29.60;;;12.93;;
14903;SDS011;7543;53.148;8.234;2023-01-25T08:03:49;25.60;;;12.07;;
14903;SDS011;7543;53.148;8.234;2023-01-25T08:06:21;23.93;;;10.60;;
14903;SDS011;7543;53.148;8.234;2023-01-25T08:08:55;22.57;;;11.37;;
14903;SDS011;7543;53.148;8.234;2023-01-25T08:11:25;25.27;;;11.37;;
14903;SDS011;7543;53.148;8.234;2023-01-25T08:13:54;23.13;;;10.67;;
14903;SDS011;7543;53.148;8.234;2023-01-25T08:16:23;26.27;;;11.20;;
14903;SDS011;7543;53.148;8.234;2023-01-25T08:18:53;27.00;;;10.53;;
14903;SDS011;7543;53.148;8.234;2023-01-25T08:21:23;23.80;;;10.63;;
14903;SDS011;7543;53.148;8.234;2023-01-25T08:23:57;22.83;;;10.13;;
14903;SDS011;7543;53.148;8.234;2023-01-25T08:26:26;21.57;;;10.20;;
14903;SDS011;7543;53.148;8.234;2023-01-25T08:28:54;27.73;;;11.23;;
14903;SDS011;7543;53.148;8.234;2023-01-25T08:31:24;24.47;;;11.00;;
14903;SDS011;7543;53.148;8.234;2023-01-25T08:33:53;22.47;;;10.57;;
14903;SDS011;7543;53.148;8.234;2023-01-25T08:36:22;28.73;;;11.13;;
14903;SDS011;7543;53.148;8.234;2023-01-25T08:38:52;18.90;;;9.70;;
14903;SDS011;7543;53.148;8.234;2023-01-25T08:41:23;29.03;;;11.40;;
14903;SDS011;7543;53.148;8.234;2023-01-25T08:43:52;24.27;;;10.50;;
14903;SDS011;7543;53.148;8.234;2023-01-25T08:46:22;19.17;;;9.53;;
14903;SDS011;7543;53.148;8.234;2023-01-25T08:48:52;24.97;;;10.73;;
14903;SDS011;7543;53.148;8.234;2023-01-25T08:51:21;23.60;;;10.40;;
14903;SDS011;7543;53.148;8.234;2023-01-25T08:53:50;24.73;;;10.53;;
14903;SDS011;7543;53.148;8.234;2023-01-25T08:56:18;25.30;;;10.47;;
14903;SDS011;7543;53.148;8.234;2023-01-25T08:58:48;23.70;;;10.20;;
14903;SDS011;7543;53.148;8.234;2023-01-25T09:01:18;22.77;;;9.93;;
14903;SDS011;7543;53.148;8.234;2023-01-25T09:03:47;21.10;;;10.03;;
14903;SDS011;7543;53.148;8.234;2023-01-25T09:06:16;25.23;;;10.43;;
14903;SDS011;7543;53.148;8.234;2023-01-25T09:08:46;20.30;;;9.43;;
14903;SDS011;7543;53.148;8.234;2023-01-25T09:11:15;23.67;;;9.23;;
14903;SDS011;7543;53.148;8.234;2023-01-25T09:13:44;25.07;;;10.77;;
14903;SDS011;7543;53.148;8.234;2023-01-25T09:16:16;21.10;;;9.50;;
14903;SDS011;7543;53.148;8.234;2023-01-25T09:18:46;25.50;;;10.93;;
14903;SDS011;7543;53.148;8.234;2023-01-25T09:21:15;24.33;;;9.87;;
14903;SDS011;7543;53.148;8.234;2023-01-25T09:23:46;21.77;;;9.37;;
14903;SDS011;7543;53.148;8.234;2023-01-25T09:26:16;21.67;;;9.57;;
14903;SDS011;7543;53.148;8.234;2023-01-25T09:28:45;20.23;;;9.47;;
14903;SDS011;7543;53.148;8.234;2023-01-25T09:31:16;19.70;;;8.93;;
14903;SDS011;7543;53.148;8.234;2023-01-25T09:34:17;25.80;;;10.83;;
14903;SDS011;7543;53.148;8.234;2023-01-25T09:36:46;19.97;;;9.60;;
14903;SDS011;7543;53.148;8.234;2023-01-25T09:39:14;21.33;;;9.53;;
14903;SDS011;7543;53.148;8.234;2023-01-25T09:41:52;27.27;;;10.47;;
14903;SDS011;7543;53.148;8.234;2023-01-25T09:44:56;23.67;;;10.23;;
14903;SDS011;7543;53.148;8.234;2023-01-25T09:47:35;22.13;;;9.87;;
14903;SDS011;7543;53.148;8.234;2023-01-25T09:50:12;20.20;;;9.13;;
14903;SDS011;7543;53.148;8.234;2023-01-25T09:52:53;21.13;;;10.23;;
14903;SDS011;7543;53.148;8.234;2023-01-25T09:55:32;24.10;;;9.77;;
14903;SDS011;7543;53.148;8.234;2023-01-25T09:58:01;20.67;;;10.17;;
14903;SDS011;7543;53.148;8.234;2023-01-25T10:00:31;23.17;;;9.97;;
14903;SDS011;7543;53.148;8.234;2023-01-25T10:03:02;24.30;;;9.87;;
14903;SDS011;7543;53.148;8.234;2023-01-25T10:05:40;21.57;;;10.00;;
14903;SDS011;7543;53.148;8.234;2023-01-25T10:08:13;25.50;;;10.57;;
14903;SDS011;7543;53.148;8.234;2023-01-25T10:10:47;24.67;;;10.73;;
14903;SDS011;7543;53.148;8.234;2023-01-25T10:13:18;25.03;;;10.10;;
14903;SDS011;7543;53.148;8.234;2023-01-25T10:15:49;23.73;;;10.53;;
14903;SDS011;7543;53.148;8.234;2023-01-25T10:18:22;20.80;;;10.23;;
14903;SDS011;7543;53.148;8.234;2023-01-25T10:20:54;20.00;;;9.50;;
14903;SDS011;7543;53.148;8.234;2023-01-25T10:26:28;22.43;;;9.47;;
14903;SDS011;7543;53.148;8.234;2023-01-25T10:28:58;20.87;;;9.13;;
14903;SDS011;7543;53.148;8.234;2023-01-25T10:31:31;22.13;;;10.13;;
14903;SDS011;7543;53.148;8.234;2023-01-25T10:34:11;27.73;;;10.90;;
14903;SDS011;7543;53.148;8.234;2023-01-25T10:36:42;20.57;;;9.50;;
14903;SDS011;7543;53.148;8.234;2023-01-25T10:39:13;23.30;;;10.30;;
14903;SDS011;7543;53.148;8.234;2023-01-25T10:41:42;20.40;;;9.80;;
14903;SDS011;7543;53.148;8.234;2023-01-25T10:44:13;26.20;;;10.50;;
14903;SDS011;7543;53.148;8.234;2023-01-25T10:46:53;24.33;;;10.90;;
14903;SDS011;7543;53.148;8.234;2023-01-25T10:49:28;22.40;;;9.53;;
14903;SDS011;7543;53.148;8.234;2023-01-25T10:52:20;23.10;;;9.80;;
14903;SDS011;7543;53.148;8.234;2023-01-25T10:55:13;23.10;;;9.87;;
14903;SDS011;7543;53.148;8.234;2023-01-25T10:57:42;24.63;;;11.07;;
14903;SDS011;7543;53.148;8.234;2023-01-25T11:00:18;28.70;;;10.33;;
14903;SDS011;7543;53.148;8.234;2023-01-25T11:02:52;23.13;;;9.87;;
14903;SDS011;7543;53.148;8.234;2023-01-25T11:05:26;27.57;;;11.80;;
14903;SDS011;7543;53.148;8.234;2023-01-25T11:07:56;21.90;;;9.30;;
14903;SDS011;7543;53.148;8.234;2023-01-25T11:10:28;20.97;;;9.27;;
14903;SDS011;7543;53.148;8.234;2023-01-25T11:13:14;24.30;;;10.27;;
14903;SDS011;7543;53.148;8.234;2023-01-25T11:15:47;23.93;;;11.13;;
14903;SDS011;7543;53.148;8.234;2023-01-25T11:18:17;22.17;;;9.47;;
14903;SDS011;7543;53.148;8.234;2023-01-25T11:20:49;24.53;;;10.50;;
14903;SDS011;7543;53.148;8.234;2023-01-25T11:23:30;25.90;;;10.70;;
14903;SDS011;7543;53.148;8.234;2023-01-25T11:26:12;24.33;;;10.07;;
14903;SDS011;7543;53.148;8.234;2023-01-25T11:28:42;18.73;;;8.90;;
14903;SDS011;7543;53.148;8.234;2023-01-25T11:31:12;21.63;;;9.73;;
14903;SDS011;7543;53.148;8.234;2023-01-25T11:33:41;18.57;;;9.27;;
14903;SDS011;7543;53.148;8.234;2023-01-25T11:36:15;22.57;;;9.53;;
14903;SDS011;7543;53.148;8.234;2023-01-25T11:38:56;26.47;;;10.53;;
14903;SDS011;7543;53.148;8.234;2023-01-25T11:41:33;23.30;;;10.87;;
14903;SDS011;7543;53.148;8.234;2023-01-25T11:44:10;24.87;;;10.47;;
14903;SDS011;7543;53.148;8.234;2023-01-25T11:46:54;23.07;;;9.93;;
14903;SDS011;7543;53.148;8.234;2023-01-25T11:49:29;25.30;;;10.87;;
14903;SDS011;7543;53.148;8.234;2023-01-25T11:52:10;30.47;;;12.00;;
14903;SDS011;7543;53.148;8.234;2023-01-25T11:54:50;29.63;;;11.97;;
14903;SDS011;7543;53.148;8.234;2023-01-25T11:57:25;28.70;;;11.43;;
14903;SDS011;7543;53.148;8.234;2023-01-25T12:00:08;27.87;;;12.40;;
14903;SDS011;7543;53.148;8.234;2023-01-25T12:02:50;25.30;;;11.23;;
14903;SDS011;7543;53.148;8.234;2023-01-25T12:05:49;27.63;;;12.67;;
14903;SDS011;7543;53.148;8.234;2023-01-25T12:08:29;29.33;;;12.97;;
14903;SDS011;7543;53.148;8.234;2023-01-25T12:11:05;28.83;;;12.70;;
14903;SDS011;7543;53.148;8.234;2023-01-25T12:13:44;33.27;;;13.43;;
14903;SDS011;7543;53.148;8.234;2023-01-25T12:16:24;29.53;;;12.97;;
14903;SDS011;7543;53.148;8.234;2023-01-25T12:19:11;32.00;;;13.00;;
14903;SDS011;7543;53.148;8.234;2023-01-25T12:21:51;33.33;;;14.27;;
14903;SDS011;7543;53.148;8.234;2023-01-25T12:24:35;37.33;;;14.97;;
14903;SDS011;7543;53.148;8.234;2023-01-25T12:27:13;35.33;;;13.47;;
14903;SDS011;7543;53.148;8.234;2023-01-25T12:29:48;31.23;;;13.30;;
14903;SDS011;7543;53.148;8.234;2023-01-25T12:32:22;40.50;;;16.30;;
14903;SDS011;7543;53.148;8.234;2023-01-25T12:34:56;34.00;;;15.37;;
14903;SDS011;7543;53.148;8.234;2023-01-25T12:37:30;36.10;;;15.30;;
14903;SDS011;7543;53.148;8.234;2023-01-25T12:40:03;36.07;;;14.37;;
14903;SDS011;7543;53.148;8.234;2023-01-25T12:42:36;38.47;;;15.63;;
14903;SDS011;7543;53.148;8.234;2023-01-25T12:45:10;32.63;;;14.20;;
14903;SDS011;7543;53.148;8.234;2023-01-25T12:47:43;30.57;;;13.33;;
14903;SDS011;7543;53.148;8.234;2023-01-25T12:50:14;37.20;;;14.90;;
14903;SDS011;7543;53.148;8.234;2023-01-25T12:52:46;36.50;;;15.07;;
14903;SDS011;7543;53.148;8.234;2023-01-25T12:55:17;40.07;;;15.73;;
14903;SDS011;7543;53.148;8.234;2023-01-25T12:57:47;35.93;;;15.27;;
14903;SDS011;7543;53.148;8.234;2023-01-25T13:00:21;42.50;;;14.63;;
14903;SDS011;7543;53.148;8.234;2023-01-25T13:02:53;36.60;;;13.27;;
14903;SDS011;7543;53.148;8.234;2023-01-25T13:05:34;35.97;;;14.60;;
14903;SDS011;7543;53.148;8.234;2023-01-25T13:08:10;35.03;;;13.33;;
14903;SDS011;7543;53.148;8.234;2023-01-25T13:10:47;30.63;;;14.07;;
14903;SDS011;7543;53.148;8.234;2023-01-25T13:13:19;31.47;;;12.77;;
14903;SDS011;7543;53.148;8.234;2023-01-25T13:15:49;34.47;;;14.13;;
14903;SDS011;7543;53.148;8.234;2023-01-25T13:18:35;32.53;;;12.50;;
14903;SDS011;7543;53.148;8.234;2023-01-25T13:21:09;27.77;;;12.37;;
14903;SDS011;7543;53.148;8.234;2023-01-25T13:23:38;34.03;;;12.47;;
14903;SDS011;7543;53.148;8.234;2023-01-25T13:35:31;25.63;;;12.20;;
14903;SDS011;7543;53.148;8.234;2023-01-25T13:38:22;32.63;;;10.27;;
14903;SDS011;7543;53.148;8.234;2023-01-25T13:41:02;26.67;;;11.20;;
14903;SDS011;7543;53.148;8.234;2023-01-25T13:43:38;21.47;;;10.47;;
14903;SDS011;7543;53.148;8.234;2023-01-25T13:46:07;24.13;;;11.50;;
14903;SDS011;7543;53.148;8.234;2023-01-25T13:48:43;28.80;;;12.20;;
14903;SDS011;7543;53.148;8.234;2023-01-25T13:51:13;25.37;;;11.77;;
14903;SDS011;7543;53.148;8.234;2023-01-25T13:53:53;24.37;;;11.27;;
14903;SDS011;7543;53.148;8.234;2023-01-25T13:56:23;23.87;;;11.43;;
14903;SDS011;7543;53.148;8.234;2023-01-25T13:58:54;33.00;;;12.67;;
14903;SDS011;7543;53.148;8.234;2023-01-25T14:01:22;26.60;;;10.87;;
14903;SDS011;7543;53.148;8.234;2023-01-25T14:03:51;25.73;;;11.60;;
14903;SDS011;7543;53.148;8.234;2023-01-25T14:06:22;25.50;;;11.03;;
14903;SDS011;7543;53.148;8.234;2023-01-25T14:08:53;28.70;;;10.00;;
14903;SDS011;7543;53.148;8.234;2023-01-25T14:11:23;25.73;;;10.70;;
14903;SDS011;7543;53.148;8.234;2023-01-25T14:14:01;29.47;;;11.60;;
14903;SDS011;7543;53.148;8.234;2023-01-25T14:16:31;22.00;;;10.07;;
14903;SDS011;7543;53.148;8.234;2023-01-25T14:19:21;22.53;;;10.53;;
14903;SDS011;7543;53.148;8.234;2023-01-25T14:21:50;24.30;;;10.50;;
14903;SDS011;7543;53.148;8.234;2023-01-25T14:24:37;23.03;;;10.07;;
14903;SDS011;7543;53.148;8.234;2023-01-25T14:27:09;27.90;;;11.50;;
14903;SDS011;7543;53.148;8.234;2023-01-25T14:29:40;22.80;;;9.87;;
14903;SDS011;7543;53.148;8.234;2023-01-25T14:32:12;24.13;;;10.27;;
14903;SDS011;7543;53.148;8.234;2023-01-25T14:34:41;25.57;;;11.33;;
14903;SDS011;7543;53.148;8.234;2023-01-25T14:37:12;26.03;;;10.63;;
14903;SDS011;7543;53.148;8.234;2023-01-25T14:39:43;26.43;;;11.47;;
14903;SDS011;7543;53.148;8.234;2023-01-25T14:42:12;23.30;;;10.67;;
14903;SDS011;7543;53.148;8.234;2023-01-25T14:44:42;23.67;;;11.13;;
14903;SDS011;7543;53.148;8.234;2023-01-25T14:47:20;24.37;;;10.37;;
14903;SDS011;7543;53.148;8.234;2023-01-25T14:49:53;25.07;;;10.50;;
14903;SDS011;7543;53.148;8.234;2023-01-25T14:52:22;23.73;;;11.33;;
14903;SDS011;7543;53.148;8.234;2023-01-25T14:54:52;21.13;;;9.77;;
14903;SDS011;7543;53.148;8.234;2023-01-25T14:57:27;21.13;;;10.17;;
14903;SDS011;7543;53.148;8.234;2023-01-25T15:00:00;19.87;;;9.17;;
14903;SDS011;7543;53.148;8.234;2023-01-25T15:02:34;22.57;;;10.03;;
14903;SDS011;7543;53.148;8.234;2023-01-25T15:05:06;27.13;;;10.73;;
14903;SDS011;7543;53.148;8.234;2023-01-25T15:07:44;27.23;;;10.10;;
14903;SDS011;7543;53.148;8.234;2023-01-25T15:10:15;22.03;;;10.40;;
14903;SDS011;7543;53.148;8.234;2023-01-25T15:12:54;20.33;;;9.23;;
14903;SDS011;7543;53.148;8.234;2023-01-25T15:15:28;29.57;;;9.90;;
14903;SDS011;7543;53.148;8.234;2023-01-25T15:17:58;20.27;;;9.40;;
14903;SDS011;7543;53.148;8.234;2023-01-25T15:20:28;21.90;;;9.87;;